<?xml version="1.0" encoding="UTF-8" standalone="no" ?>
<gpx xmlns="http://www.topografix.com/GPX/1/1" xmlns:xsi="http://www.w3.org/2001/XMLSchema-instance" xsi:schemaLocation="http://www.topografix.com/GPX/1/1 http://www.topografix.com/GPX/1/1/gpx.xsd" version="1.1" creator="VisuGPX - https://www.visugpx.com">
  <metadata>
    <name>ARQUES LA SEYNE SUR MER 1497 KM</name>
    <desc><![CDATA[Rando de Arques dans le Pas de Calais jusque La Seyne sur Mer dans le Var, 1497 km]]></desc>
  </metadata>
  <trk>
    <name><![CDATA[42 - LE BESSAT VANOSC 21.3 KM]]></name>
    <extensions>
      <line xmlns="http://www.topografix.com/GPX/gpx_style/0/2">
        <color>FFFF00</color>
        <width>4</width>
      </line>
    </extensions>
    <trkseg>
      <trkpt lat="45.36859" lon="4.51589">
        <ele>1174</ele>
        <time>2021-11-23T11:36:24+01:00</time>
      </trkpt>
      <trkpt lat="45.36846" lon="4.51661">
        <ele>1175</ele>
        <time>2021-11-23T11:36:29+01:00</time>
      </trkpt>
      <trkpt lat="45.36777" lon="4.51819">
        <ele>1184</ele>
        <time>2021-11-23T11:36:34+01:00</time>
      </trkpt>
      <trkpt lat="45.36675" lon="4.5186">
        <ele>1196</ele>
        <time>2021-11-23T11:36:39+01:00</time>
      </trkpt>
      <trkpt lat="45.36567" lon="4.5197">
        <ele>1205</ele>
        <time>2021-11-23T11:36:44+01:00</time>
      </trkpt>
      <trkpt lat="45.36447" lon="4.52203">
        <ele>1210</ele>
        <time>2021-11-23T11:36:49+01:00</time>
      </trkpt>
      <trkpt lat="45.36425" lon="4.52317">
        <ele>1213</ele>
        <time>2021-11-23T11:36:54+01:00</time>
      </trkpt>
      <trkpt lat="45.36392" lon="4.52399">
        <ele>1217</ele>
        <time>2021-11-23T11:36:59+01:00</time>
      </trkpt>
      <trkpt lat="45.36316" lon="4.52433">
        <ele>1221</ele>
        <time>2021-11-23T11:37:04+01:00</time>
      </trkpt>
      <trkpt lat="45.36186" lon="4.52395">
        <ele>1229</ele>
        <time>2021-11-23T11:37:09+01:00</time>
      </trkpt>
      <trkpt lat="45.36017" lon="4.52326">
        <ele>1228</ele>
        <time>2021-11-23T11:37:14+01:00</time>
      </trkpt>
      <trkpt lat="45.35911" lon="4.52418">
        <ele>1243</ele>
        <time>2021-11-23T11:37:19+01:00</time>
      </trkpt>
      <trkpt lat="45.35816" lon="4.52452">
        <ele>1253</ele>
        <time>2021-11-23T11:37:24+01:00</time>
      </trkpt>
      <trkpt lat="45.35661" lon="4.52644">
        <ele>1273</ele>
        <time>2021-11-23T11:37:29+01:00</time>
      </trkpt>
      <trkpt lat="45.35621" lon="4.5273">
        <ele>1280</ele>
        <time>2021-11-23T11:37:34+01:00</time>
      </trkpt>
      <trkpt lat="45.35559" lon="4.52748">
        <ele>1283</ele>
        <time>2021-11-23T11:37:39+01:00</time>
      </trkpt>
      <trkpt lat="45.35497" lon="4.52796">
        <ele>1286</ele>
        <time>2021-11-23T11:37:44+01:00</time>
      </trkpt>
      <trkpt lat="45.35433" lon="4.52758">
        <ele>1294</ele>
        <time>2021-11-23T11:37:49+01:00</time>
      </trkpt>
      <trkpt lat="45.35189" lon="4.52572">
        <ele>1306</ele>
        <time>2021-11-23T11:37:54+01:00</time>
      </trkpt>
      <trkpt lat="45.35036" lon="4.52569">
        <ele>1303</ele>
        <time>2021-11-23T11:37:59+01:00</time>
      </trkpt>
      <trkpt lat="45.3485" lon="4.52619">
        <ele>1291</ele>
        <time>2021-11-23T11:38:04+01:00</time>
      </trkpt>
      <trkpt lat="45.34757" lon="4.52622">
        <ele>1283</ele>
        <time>2021-11-23T11:38:09+01:00</time>
      </trkpt>
      <trkpt lat="45.3466" lon="4.52739">
        <ele>1284</ele>
        <time>2021-11-23T11:38:14+01:00</time>
      </trkpt>
      <trkpt lat="45.34569" lon="4.52758">
        <ele>1292</ele>
        <time>2021-11-23T11:38:19+01:00</time>
      </trkpt>
      <trkpt lat="45.34516" lon="4.52796">
        <ele>1298</ele>
        <time>2021-11-23T11:38:24+01:00</time>
      </trkpt>
      <trkpt lat="45.34394" lon="4.52805">
        <ele>1302</ele>
        <time>2021-11-23T11:38:29+01:00</time>
      </trkpt>
      <trkpt lat="45.3413" lon="4.52916">
        <ele>1271</ele>
        <time>2021-11-23T11:38:34+01:00</time>
      </trkpt>
      <trkpt lat="45.33955" lon="4.53187">
        <ele>1248</ele>
        <time>2021-11-23T11:38:39+01:00</time>
      </trkpt>
      <trkpt lat="45.33765" lon="4.53297">
        <ele>1207</ele>
        <time>2021-11-23T11:38:44+01:00</time>
      </trkpt>
      <trkpt lat="45.33727" lon="4.53338">
        <ele>1194</ele>
        <time>2021-11-23T11:38:49+01:00</time>
      </trkpt>
      <trkpt lat="45.33528" lon="4.53385">
        <ele>1163</ele>
        <time>2021-11-23T11:38:54+01:00</time>
      </trkpt>
      <trkpt lat="45.33381" lon="4.53596">
        <ele>1127</ele>
        <time>2021-11-23T11:38:59+01:00</time>
      </trkpt>
      <trkpt lat="45.33284" lon="4.53776">
        <ele>1111</ele>
        <time>2021-11-23T11:39:04+01:00</time>
      </trkpt>
      <trkpt lat="45.33253" lon="4.53886">
        <ele>1110</ele>
        <time>2021-11-23T11:39:09+01:00</time>
      </trkpt>
      <trkpt lat="45.33084" lon="4.54072">
        <ele>1100</ele>
        <time>2021-11-23T11:39:14+01:00</time>
      </trkpt>
      <trkpt lat="45.32987" lon="4.54176">
        <ele>1079</ele>
        <time>2021-11-23T11:39:19+01:00</time>
      </trkpt>
      <trkpt lat="45.32876" lon="4.54201">
        <ele>1066</ele>
        <time>2021-11-23T11:39:24+01:00</time>
      </trkpt>
      <trkpt lat="45.32748" lon="4.54186">
        <ele>1051</ele>
        <time>2021-11-23T11:39:29+01:00</time>
      </trkpt>
      <trkpt lat="45.32659" lon="4.54252">
        <ele>1029</ele>
        <time>2021-11-23T11:39:34+01:00</time>
      </trkpt>
      <trkpt lat="45.32619" lon="4.54384">
        <ele>1012</ele>
        <time>2021-11-23T11:39:39+01:00</time>
      </trkpt>
      <trkpt lat="45.32608" lon="4.54532">
        <ele>998</ele>
        <time>2021-11-23T11:39:44+01:00</time>
      </trkpt>
      <trkpt lat="45.32528" lon="4.54687">
        <ele>984</ele>
        <time>2021-11-23T11:39:49+01:00</time>
      </trkpt>
      <trkpt lat="45.3248" lon="4.54674">
        <ele>979</ele>
        <time>2021-11-23T11:39:54+01:00</time>
      </trkpt>
      <trkpt lat="45.3244" lon="4.54599">
        <ele>969</ele>
        <time>2021-11-23T11:39:59+01:00</time>
      </trkpt>
      <trkpt lat="45.3236" lon="4.54681">
        <ele>948</ele>
        <time>2021-11-23T11:40:04+01:00</time>
      </trkpt>
      <trkpt lat="45.32247" lon="4.54703">
        <ele>919</ele>
        <time>2021-11-23T11:40:09+01:00</time>
      </trkpt>
      <trkpt lat="45.32045" lon="4.54766">
        <ele>881</ele>
        <time>2021-11-23T11:40:14+01:00</time>
      </trkpt>
      <trkpt lat="45.31979" lon="4.54844">
        <ele>866</ele>
        <time>2021-11-23T11:40:19+01:00</time>
      </trkpt>
      <trkpt lat="45.31921" lon="4.54873">
        <ele>847</ele>
        <time>2021-11-23T11:40:24+01:00</time>
      </trkpt>
      <trkpt lat="45.31908" lon="4.54826">
        <ele>842</ele>
        <time>2021-11-23T11:40:29+01:00</time>
      </trkpt>
      <trkpt lat="45.31855" lon="4.54952">
        <ele>826</ele>
        <time>2021-11-23T11:40:34+01:00</time>
      </trkpt>
      <trkpt lat="45.31804" lon="4.54977">
        <ele>810</ele>
        <time>2021-11-23T11:40:39+01:00</time>
      </trkpt>
      <trkpt lat="45.31777" lon="4.54633">
        <ele>781</ele>
        <time>2021-11-23T11:40:44+01:00</time>
      </trkpt>
      <trkpt lat="45.31666" lon="4.54822">
        <ele>761</ele>
        <time>2021-11-23T11:40:49+01:00</time>
      </trkpt>
      <trkpt lat="45.31555" lon="4.5486">
        <ele>735</ele>
        <time>2021-11-23T11:40:54+01:00</time>
      </trkpt>
      <trkpt lat="45.31407" lon="4.55018">
        <ele>711</ele>
        <time>2021-11-23T11:40:59+01:00</time>
      </trkpt>
      <trkpt lat="45.31365" lon="4.55012">
        <ele>698</ele>
        <time>2021-11-23T11:41:04+01:00</time>
      </trkpt>
      <trkpt lat="45.31376" lon="4.54923">
        <ele>697</ele>
        <time>2021-11-23T11:41:09+01:00</time>
      </trkpt>
      <trkpt lat="45.31351" lon="4.54895">
        <ele>695</ele>
        <time>2021-11-23T11:41:14+01:00</time>
      </trkpt>
      <trkpt lat="45.3123" lon="4.54936">
        <ele>690</ele>
        <time>2021-11-23T11:41:19+01:00</time>
      </trkpt>
      <trkpt lat="45.31194" lon="4.55046">
        <ele>674</ele>
        <time>2021-11-23T11:41:24+01:00</time>
      </trkpt>
      <trkpt lat="45.31167" lon="4.55049">
        <ele>672</ele>
        <time>2021-11-23T11:41:29+01:00</time>
      </trkpt>
      <trkpt lat="45.31105" lon="4.54936">
        <ele>664</ele>
        <time>2021-11-23T11:41:34+01:00</time>
      </trkpt>
      <trkpt lat="45.30968" lon="4.54889">
        <ele>645</ele>
        <time>2021-11-23T11:41:39+01:00</time>
      </trkpt>
      <trkpt lat="45.30802" lon="4.54952">
        <ele>617</ele>
        <time>2021-11-23T11:41:44+01:00</time>
      </trkpt>
      <trkpt lat="45.30671" lon="4.55005">
        <ele>607</ele>
        <time>2021-11-23T11:41:49+01:00</time>
      </trkpt>
      <trkpt lat="45.30593" lon="4.5504">
        <ele>604</ele>
        <time>2021-11-23T11:41:54+01:00</time>
      </trkpt>
      <trkpt lat="45.30416" lon="4.55295">
        <ele>592</ele>
        <time>2021-11-23T11:41:59+01:00</time>
      </trkpt>
      <trkpt lat="45.30179" lon="4.55503">
        <ele>572</ele>
        <time>2021-11-23T11:42:04+01:00</time>
      </trkpt>
      <trkpt lat="45.30117" lon="4.55484">
        <ele>572</ele>
        <time>2021-11-23T11:42:09+01:00</time>
      </trkpt>
      <trkpt lat="45.30048" lon="4.55541">
        <ele>567</ele>
        <time>2021-11-23T11:42:14+01:00</time>
      </trkpt>
      <trkpt lat="45.29975" lon="4.55563">
        <ele>572</ele>
        <time>2021-11-23T11:42:19+01:00</time>
      </trkpt>
      <trkpt lat="45.29897" lon="4.55759">
        <ele>560</ele>
        <time>2021-11-23T11:42:24+01:00</time>
      </trkpt>
      <trkpt lat="45.29798" lon="4.55821">
        <ele>556</ele>
        <time>2021-11-23T11:42:29+01:00</time>
      </trkpt>
      <trkpt lat="45.29679" lon="4.55924">
        <ele>547</ele>
        <time>2021-11-23T11:42:34+01:00</time>
      </trkpt>
      <trkpt lat="45.29628" lon="4.5589">
        <ele>547</ele>
        <time>2021-11-23T11:42:39+01:00</time>
      </trkpt>
      <trkpt lat="45.29592" lon="4.55932">
        <ele>542</ele>
        <time>2021-11-23T11:42:44+01:00</time>
      </trkpt>
      <trkpt lat="45.29305" lon="4.555">
        <ele>547</ele>
        <time>2021-11-23T11:42:49+01:00</time>
      </trkpt>
      <trkpt lat="45.29154" lon="4.55466">
        <ele>548</ele>
        <time>2021-11-23T11:42:54+01:00</time>
      </trkpt>
      <trkpt lat="45.28992" lon="4.5542">
        <ele>559</ele>
        <time>2021-11-23T11:42:59+01:00</time>
      </trkpt>
      <trkpt lat="45.28942" lon="4.55293">
        <ele>564</ele>
        <time>2021-11-23T11:43:04+01:00</time>
      </trkpt>
      <trkpt lat="45.28848" lon="4.5521">
        <ele>566</ele>
        <time>2021-11-23T11:43:09+01:00</time>
      </trkpt>
      <trkpt lat="45.28593" lon="4.55009">
        <ele>593</ele>
        <time>2021-11-23T11:43:14+01:00</time>
      </trkpt>
      <trkpt lat="45.2854" lon="4.5489">
        <ele>606</ele>
        <time>2021-11-23T11:43:19+01:00</time>
      </trkpt>
      <trkpt lat="45.28524" lon="4.54822">
        <ele>618</ele>
        <time>2021-11-23T11:43:24+01:00</time>
      </trkpt>
      <trkpt lat="45.28482" lon="4.54706">
        <ele>636</ele>
        <time>2021-11-23T11:43:29+01:00</time>
      </trkpt>
      <trkpt lat="45.28391" lon="4.54546">
        <ele>665</ele>
        <time>2021-11-23T11:43:34+01:00</time>
      </trkpt>
      <trkpt lat="45.28346" lon="4.54533">
        <ele>678</ele>
        <time>2021-11-23T11:43:39+01:00</time>
      </trkpt>
      <trkpt lat="45.28313" lon="4.54414">
        <ele>685</ele>
        <time>2021-11-23T11:43:44+01:00</time>
      </trkpt>
      <trkpt lat="45.28238" lon="4.54494">
        <ele>702</ele>
        <time>2021-11-23T11:43:49+01:00</time>
      </trkpt>
      <trkpt lat="45.28187" lon="4.54468">
        <ele>714</ele>
        <time>2021-11-23T11:43:54+01:00</time>
      </trkpt>
      <trkpt lat="45.28033" lon="4.54305">
        <ele>739</ele>
        <time>2021-11-23T11:43:59+01:00</time>
      </trkpt>
      <trkpt lat="45.27809" lon="4.54398">
        <ele>752</ele>
        <time>2021-11-23T11:44:04+01:00</time>
      </trkpt>
      <trkpt lat="45.27725" lon="4.5444">
        <ele>770</ele>
        <time>2021-11-23T11:44:09+01:00</time>
      </trkpt>
      <trkpt lat="45.27636" lon="4.54427">
        <ele>777</ele>
        <time>2021-11-23T11:44:14+01:00</time>
      </trkpt>
      <trkpt lat="45.27485" lon="4.5444">
        <ele>815</ele>
        <time>2021-11-23T11:44:19+01:00</time>
      </trkpt>
      <trkpt lat="45.27386" lon="4.543">
        <ele>818</ele>
        <time>2021-11-23T11:44:24+01:00</time>
      </trkpt>
      <trkpt lat="45.27348" lon="4.54302">
        <ele>825</ele>
        <time>2021-11-23T11:44:29+01:00</time>
      </trkpt>
      <trkpt lat="45.2737" lon="4.5437">
        <ele>833</ele>
        <time>2021-11-23T11:44:34+01:00</time>
      </trkpt>
      <trkpt lat="45.27257" lon="4.54352">
        <ele>854</ele>
        <time>2021-11-23T11:44:39+01:00</time>
      </trkpt>
      <trkpt lat="45.2725" lon="4.54401">
        <ele>867</ele>
        <time>2021-11-23T11:44:44+01:00</time>
      </trkpt>
      <trkpt lat="45.27141" lon="4.54292">
        <ele>884</ele>
        <time>2021-11-23T11:44:49+01:00</time>
      </trkpt>
      <trkpt lat="45.27075" lon="4.54217">
        <ele>899</ele>
        <time>2021-11-23T11:44:54+01:00</time>
      </trkpt>
      <trkpt lat="45.27026" lon="4.54101">
        <ele>902</ele>
        <time>2021-11-23T11:44:59+01:00</time>
      </trkpt>
      <trkpt lat="45.26997" lon="4.54152">
        <ele>915</ele>
        <time>2021-11-23T11:45:04+01:00</time>
      </trkpt>
      <trkpt lat="45.26986" lon="4.54209">
        <ele>923</ele>
        <time>2021-11-23T11:45:09+01:00</time>
      </trkpt>
      <trkpt lat="45.26921" lon="4.54277">
        <ele>944</ele>
        <time>2021-11-23T11:45:14+01:00</time>
      </trkpt>
      <trkpt lat="45.26853" lon="4.54243">
        <ele>954</ele>
        <time>2021-11-23T11:45:19+01:00</time>
      </trkpt>
      <trkpt lat="45.26768" lon="4.54359">
        <ele>978</ele>
        <time>2021-11-23T11:45:24+01:00</time>
      </trkpt>
      <trkpt lat="45.26751" lon="4.54243">
        <ele>977</ele>
        <time>2021-11-23T11:45:29+01:00</time>
      </trkpt>
      <trkpt lat="45.267" lon="4.54233">
        <ele>979</ele>
        <time>2021-11-23T11:45:34+01:00</time>
      </trkpt>
      <trkpt lat="45.26624" lon="4.54292">
        <ele>982</ele>
        <time>2021-11-23T11:45:39+01:00</time>
      </trkpt>
      <trkpt lat="45.26567" lon="4.54282">
        <ele>979</ele>
        <time>2021-11-23T11:45:44+01:00</time>
      </trkpt>
      <trkpt lat="45.26509" lon="4.54297">
        <ele>982</ele>
        <time>2021-11-23T11:45:49+01:00</time>
      </trkpt>
      <trkpt lat="45.26478" lon="4.54256">
        <ele>982</ele>
        <time>2021-11-23T11:45:54+01:00</time>
      </trkpt>
      <trkpt lat="45.26374" lon="4.54251">
        <ele>998</ele>
        <time>2021-11-23T11:45:59+01:00</time>
      </trkpt>
      <trkpt lat="45.26325" lon="4.54083">
        <ele>1018</ele>
        <time>2021-11-23T11:46:04+01:00</time>
      </trkpt>
      <trkpt lat="45.2624" lon="4.54044">
        <ele>1026</ele>
        <time>2021-11-23T11:46:09+01:00</time>
      </trkpt>
      <trkpt lat="45.26105" lon="4.53837">
        <ele>1024</ele>
        <time>2021-11-23T11:46:14+01:00</time>
      </trkpt>
      <trkpt lat="45.2606" lon="4.53824">
        <ele>1029</ele>
        <time>2021-11-23T11:46:19+01:00</time>
      </trkpt>
      <trkpt lat="45.25923" lon="4.53803">
        <ele>1032</ele>
        <time>2021-11-23T11:46:24+01:00</time>
      </trkpt>
      <trkpt lat="45.25845" lon="4.53865">
        <ele>1042</ele>
        <time>2021-11-23T11:46:29+01:00</time>
      </trkpt>
      <trkpt lat="45.25816" lon="4.53881">
        <ele>1042</ele>
        <time>2021-11-23T11:46:34+01:00</time>
      </trkpt>
      <trkpt lat="45.25768" lon="4.53886">
        <ele>1040</ele>
        <time>2021-11-23T11:46:39+01:00</time>
      </trkpt>
      <trkpt lat="45.25759" lon="4.53933">
        <ele>1037</ele>
        <time>2021-11-23T11:46:44+01:00</time>
      </trkpt>
      <trkpt lat="45.25599" lon="4.53989">
        <ele>1037</ele>
        <time>2021-11-23T11:46:49+01:00</time>
      </trkpt>
      <trkpt lat="45.25548" lon="4.54031">
        <ele>1038</ele>
        <time>2021-11-23T11:46:54+01:00</time>
      </trkpt>
      <trkpt lat="45.2542" lon="4.54098">
        <ele>1053</ele>
        <time>2021-11-23T11:46:59+01:00</time>
      </trkpt>
      <trkpt lat="45.25349" lon="4.54171">
        <ele>1042</ele>
        <time>2021-11-23T11:47:04+01:00</time>
      </trkpt>
      <trkpt lat="45.25122" lon="4.54044">
        <ele>1051</ele>
        <time>2021-11-23T11:47:09+01:00</time>
      </trkpt>
      <trkpt lat="45.24962" lon="4.54349">
        <ele>992</ele>
        <time>2021-11-23T11:47:14+01:00</time>
      </trkpt>
      <trkpt lat="45.25022" lon="4.54452">
        <ele>965</ele>
        <time>2021-11-23T11:47:19+01:00</time>
      </trkpt>
      <trkpt lat="45.25018" lon="4.54597">
        <ele>939</ele>
        <time>2021-11-23T11:47:24+01:00</time>
      </trkpt>
      <trkpt lat="45.24978" lon="4.54721">
        <ele>923</ele>
        <time>2021-11-23T11:47:29+01:00</time>
      </trkpt>
      <trkpt lat="45.25" lon="4.5476">
        <ele>922</ele>
        <time>2021-11-23T11:47:34+01:00</time>
      </trkpt>
      <trkpt lat="45.24942" lon="4.54807">
        <ele>908</ele>
        <time>2021-11-23T11:47:39+01:00</time>
      </trkpt>
      <trkpt lat="45.24872" lon="4.54688">
        <ele>902</ele>
        <time>2021-11-23T11:47:44+01:00</time>
      </trkpt>
      <trkpt lat="45.24752" lon="4.54641">
        <ele>872</ele>
        <time>2021-11-23T11:47:49+01:00</time>
      </trkpt>
      <trkpt lat="45.24681" lon="4.54569">
        <ele>873</ele>
        <time>2021-11-23T11:47:54+01:00</time>
      </trkpt>
      <trkpt lat="45.24541" lon="4.54468">
        <ele>864</ele>
        <time>2021-11-23T11:47:59+01:00</time>
      </trkpt>
      <trkpt lat="45.24463" lon="4.54344">
        <ele>864</ele>
        <time>2021-11-23T11:48:04+01:00</time>
      </trkpt>
      <trkpt lat="45.24399" lon="4.54326">
        <ele>855</ele>
        <time>2021-11-23T11:48:09+01:00</time>
      </trkpt>
      <trkpt lat="45.24403" lon="4.54483">
        <ele>836</ele>
        <time>2021-11-23T11:48:14+01:00</time>
      </trkpt>
      <trkpt lat="45.24404" lon="4.54582">
        <ele>822</ele>
        <time>2021-11-23T11:48:19+01:00</time>
      </trkpt>
      <trkpt lat="45.24386" lon="4.54672">
        <ele>816</ele>
        <time>2021-11-23T11:48:24+01:00</time>
      </trkpt>
      <trkpt lat="45.24279" lon="4.54897">
        <ele>806</ele>
        <time>2021-11-23T11:48:29+01:00</time>
      </trkpt>
      <trkpt lat="45.24155" lon="4.55076">
        <ele>794</ele>
        <time>2021-11-23T11:48:34+01:00</time>
      </trkpt>
      <trkpt lat="45.23998" lon="4.55076">
        <ele>767</ele>
        <time>2021-11-23T11:48:39+01:00</time>
      </trkpt>
      <trkpt lat="45.23942" lon="4.55045">
        <ele>771</ele>
        <time>2021-11-23T11:48:44+01:00</time>
      </trkpt>
      <trkpt lat="45.2392" lon="4.55081">
        <ele>761</ele>
        <time>2021-11-23T11:48:49+01:00</time>
      </trkpt>
      <trkpt lat="45.23569" lon="4.55301">
        <ele>760</ele>
        <time>2021-11-23T11:48:54+01:00</time>
      </trkpt>
      <trkpt lat="45.23446" lon="4.55311">
        <ele>761</ele>
        <time>2021-11-23T11:48:59+01:00</time>
      </trkpt>
      <trkpt lat="45.23279" lon="4.55265">
        <ele>755</ele>
        <time>2021-11-23T11:49:04+01:00</time>
      </trkpt>
      <trkpt lat="45.2317" lon="4.55244">
        <ele>735</ele>
        <time>2021-11-23T11:49:09+01:00</time>
      </trkpt>
      <trkpt lat="45.23069" lon="4.55166">
        <ele>725</ele>
        <time>2021-11-23T11:49:14+01:00</time>
      </trkpt>
      <trkpt lat="45.229" lon="4.55096">
        <ele>696</ele>
        <time>2021-11-23T11:49:19+01:00</time>
      </trkpt>
      <trkpt lat="45.22849" lon="4.55257">
        <ele>672</ele>
        <time>2021-11-23T11:49:24+01:00</time>
      </trkpt>
      <trkpt lat="45.22793" lon="4.55089">
        <ele>678</ele>
        <time>2021-11-23T11:49:29+01:00</time>
      </trkpt>
      <trkpt lat="45.22667" lon="4.55151">
        <ele>652</ele>
        <time>2021-11-23T11:49:34+01:00</time>
      </trkpt>
      <trkpt lat="45.22599" lon="4.55096">
        <ele>656</ele>
        <time>2021-11-23T11:49:39+01:00</time>
      </trkpt>
      <trkpt lat="45.22507" lon="4.54977">
        <ele>659</ele>
        <time>2021-11-23T11:49:44+01:00</time>
      </trkpt>
      <trkpt lat="45.22437" lon="4.54955">
        <ele>656</ele>
        <time>2021-11-23T11:49:49+01:00</time>
      </trkpt>
      <trkpt lat="45.22427" lon="4.55022">
        <ele>648</ele>
        <time>2021-11-23T11:49:54+01:00</time>
      </trkpt>
      <trkpt lat="45.22455" lon="4.55123">
        <ele>639</ele>
        <time>2021-11-23T11:49:59+01:00</time>
      </trkpt>
      <trkpt lat="45.22513" lon="4.55164">
        <ele>637</ele>
        <time>2021-11-23T11:50:04+01:00</time>
      </trkpt>
    </trkseg>
  </trk>
</gpx>